createdAt,value
2018-09-29T00:01:30.668Z,4.00
2018-09-29T00:03:59.900Z,3.87
2018-09-29T00:06:29.254Z,3.97
2018-09-29T00:08:58.448Z,3.63
2018-09-29T00:11:28.215Z,4.00
2018-09-29T00:13:57.983Z,3.70
2018-09-29T00:16:27.229Z,3.50
2018-09-29T00:18:57.031Z,3.67
2018-09-29T00:21:26.134Z,3.33
2018-09-29T00:23:55.235Z,3.20
2018-09-29T00:26:24.516Z,3.43
2018-09-29T00:28:53.846Z,2.90
2018-09-29T00:31:22.935Z,3.70
2018-09-29T00:33:52.069Z,4.10
2018-09-29T00:36:21.987Z,3.40
2018-09-29T00:38:51.231Z,3.60
2018-09-29T00:41:20.327Z,4.10
2018-09-29T00:43:49.402Z,4.13
2018-09-29T00:46:18.477Z,4.60
2018-09-29T00:48:47.524Z,4.60
2018-09-29T00:51:16.604Z,4.27
2018-09-29T00:53:46.048Z,4.57
2018-09-29T00:56:15.264Z,4.87
2018-09-29T00:58:44.518Z,4.17
2018-09-29T01:01:13.618Z,3.93
2018-09-29T01:03:42.713Z,4.00
2018-09-29T01:06:12.942Z,3.47
2018-09-29T01:08:42.010Z,3.33
2018-09-29T01:11:11.108Z,4.20
2018-09-29T01:13:40.233Z,3.10
2018-09-29T01:16:09.351Z,3.60
2018-09-29T01:18:38.519Z,4.33
2018-09-29T01:21:09.473Z,3.70
2018-09-29T01:23:38.997Z,3.70
2018-09-29T01:26:08.312Z,4.10
2018-09-29T01:28:37.795Z,3.77
2018-09-29T01:31:07.394Z,4.00
2018-09-29T01:33:36.492Z,4.47
2018-09-29T01:36:05.739Z,4.07
2018-09-29T01:38:34.855Z,3.70
2018-09-29T01:41:03.972Z,4.23
2018-09-29T01:43:33.710Z,3.80
2018-09-29T01:46:03.307Z,4.40
2018-09-29T01:48:32.397Z,3.10
2018-09-29T01:51:01.603Z,3.83
2018-09-29T01:53:30.804Z,4.17
2018-09-29T01:55:59.869Z,3.97
2018-09-29T01:58:28.980Z,3.53
2018-09-29T02:00:58.151Z,5.17
2018-09-29T02:03:27.237Z,4.40
2018-09-29T02:05:57.767Z,4.33
2018-09-29T02:08:26.928Z,4.73
2018-09-29T02:10:55.980Z,3.73
2018-09-29T02:13:25.072Z,4.00
2018-09-29T02:15:54.787Z,4.60
2018-09-29T02:18:23.896Z,4.80
2018-09-29T02:20:53.635Z,4.50
2018-09-29T02:23:22.719Z,4.20
2018-09-29T02:25:52.463Z,4.37
2018-09-29T02:28:21.560Z,3.80
2018-09-29T02:30:51.325Z,4.33
2018-09-29T02:33:20.397Z,4.90
2018-09-29T02:35:49.488Z,4.67
2018-09-29T02:38:18.569Z,4.03
2018-09-29T02:40:48.244Z,4.50
2018-09-29T02:43:17.331Z,5.00
2018-09-29T02:45:46.556Z,4.70
2018-09-29T02:48:15.642Z,4.67
2018-09-29T02:50:44.724Z,5.27
2018-09-29T02:53:13.799Z,5.53
2018-09-29T02:55:42.863Z,4.63
2018-09-29T02:58:12.172Z,4.30
2018-09-29T03:00:42.505Z,5.30
2018-09-29T03:03:11.594Z,3.80
2018-09-29T03:05:42.085Z,4.57
2018-09-29T03:08:11.166Z,4.73
2018-09-29T03:10:40.272Z,4.83
2018-09-29T03:13:09.640Z,4.80
2018-09-29T03:15:39.664Z,4.80
2018-09-29T03:18:10.071Z,4.57
2018-09-29T03:20:39.155Z,4.10
2018-09-29T03:23:08.421Z,3.53
2018-09-29T03:25:37.550Z,4.33
2018-09-29T03:28:06.760Z,4.63
2018-09-29T03:30:35.974Z,4.43
2018-09-29T03:33:05.249Z,4.40
2018-09-29T03:35:41.064Z,4.70
2018-09-29T03:38:10.835Z,6.53
2018-09-29T03:40:39.900Z,5.20
2018-09-29T03:43:08.965Z,5.17
2018-09-29T03:45:38.119Z,4.47
2018-09-29T03:48:07.793Z,4.10
2018-09-29T03:50:36.954Z,4.33
2018-09-29T03:53:06.090Z,4.20
2018-09-29T03:55:35.186Z,4.50
2018-09-29T03:58:04.248Z,4.70
2018-09-29T04:00:33.433Z,5.23
2018-09-29T04:03:02.636Z,4.47
2018-09-29T04:05:31.692Z,5.27
2018-09-29T04:08:01.251Z,5.70
2018-09-29T04:10:30.300Z,4.90
2018-09-29T04:12:59.387Z,5.80
2018-09-29T04:15:28.527Z,5.03
2018-09-29T04:17:57.724Z,4.50
2018-09-29T04:20:26.836Z,4.70
2018-09-29T04:22:55.931Z,4.07
2018-09-29T04:25:25.015Z,4.33
2018-09-29T04:27:54.073Z,5.33
2018-09-29T04:30:23.831Z,4.27
2018-09-29T04:32:52.920Z,4.20
2018-09-29T04:35:22.028Z,4.00
2018-09-29T04:37:51.580Z,5.00
2018-09-29T04:40:21.119Z,5.10
2018-09-29T04:42:50.192Z,4.80
2018-09-29T04:45:19.291Z,3.70
2018-09-29T04:47:48.982Z,4.20
2018-09-29T04:50:18.053Z,3.80
2018-09-29T04:52:47.185Z,4.13
2018-09-29T04:55:18.371Z,3.80
2018-09-29T04:57:47.446Z,3.40
2018-09-29T05:00:16.515Z,4.20
2018-09-29T05:02:45.574Z,3.57
2018-09-29T05:05:15.600Z,4.20
2018-09-29T05:07:44.642Z,4.00
2018-09-29T05:10:13.767Z,4.13
2018-09-29T05:12:42.850Z,3.80
2018-09-29T05:15:13.044Z,4.30
2018-09-29T05:17:42.660Z,3.17
2018-09-29T05:20:12.392Z,4.20
2018-09-29T05:22:41.463Z,4.20
2018-09-29T05:25:10.895Z,5.43
2018-09-29T05:27:39.972Z,4.60
2018-09-29T05:30:09.808Z,5.17
2018-09-29T05:32:38.920Z,4.30
2018-09-29T05:35:08.036Z,3.87
2018-09-29T05:37:38.491Z,5.87
2018-09-29T05:40:07.617Z,5.07
2018-09-29T05:42:36.668Z,5.33
2018-09-29T05:45:06.119Z,5.17
2018-09-29T05:47:35.277Z,5.60
2018-09-29T05:50:04.581Z,10.67
2018-09-29T05:52:33.664Z,9.20
2018-09-29T05:55:02.788Z,7.60
2018-09-29T05:57:32.009Z,9.60
2018-09-29T06:00:01.163Z,10.53
2018-09-29T06:02:30.203Z,11.17
2018-09-29T06:04:59.380Z,10.93
2018-09-29T06:07:28.656Z,9.90
2018-09-29T06:09:58.366Z,9.07
2018-09-29T06:12:27.777Z,9.03
2018-09-29T06:14:57.430Z,12.53
2018-09-29T06:17:26.571Z,9.90
2018-09-29T06:19:55.734Z,9.83
2018-09-29T06:22:25.094Z,7.80
2018-09-29T06:24:55.642Z,8.23
2018-09-29T06:27:24.730Z,8.27
2018-09-29T06:29:53.848Z,8.10
2018-09-29T06:32:22.944Z,7.90
2018-09-29T06:34:52.028Z,7.63
2018-09-29T06:37:21.209Z,7.40
2018-09-29T06:39:50.316Z,7.60
2018-09-29T06:42:19.436Z,7.87
2018-09-29T06:44:48.589Z,7.70
2018-09-29T06:47:17.891Z,7.80
2018-09-29T06:49:47.099Z,7.10
2018-09-29T06:52:17.638Z,7.90
2018-09-29T06:54:46.711Z,6.60
2018-09-29T06:57:15.788Z,6.33
2018-09-29T06:59:44.955Z,8.33
2018-09-29T07:02:14.133Z,9.57
2018-09-29T07:04:43.220Z,7.27
2018-09-29T07:07:12.296Z,10.57
2018-09-29T07:09:41.498Z,10.00
2018-09-29T07:12:10.586Z,9.70
2018-09-29T07:14:39.736Z,8.77
2018-09-29T07:17:09.193Z,10.37
2018-09-29T07:19:38.320Z,9.67
2018-09-29T07:22:07.675Z,8.40
2018-09-29T07:24:36.855Z,8.03
2018-09-29T07:27:06.205Z,8.97
2018-09-29T07:29:35.304Z,9.30
2018-09-29T07:32:04.467Z,7.83
2018-09-29T07:34:33.627Z,7.90
2018-09-29T07:37:02.745Z,7.30
2018-09-29T07:39:31.858Z,8.20
2018-09-29T07:42:01.575Z,9.70
2018-09-29T07:44:30.777Z,8.37
2018-09-29T07:46:59.953Z,8.60
2018-09-29T07:49:29.076Z,7.37
2018-09-29T07:51:58.270Z,6.60
2018-09-29T07:54:27.571Z,7.00
2018-09-29T07:56:56.875Z,7.60
2018-09-29T07:59:26.517Z,6.43
2018-09-29T08:01:55.684Z,17.97
2018-09-29T08:04:24.792Z,9.20
2018-09-29T08:06:54.981Z,6.83
2018-09-29T08:09:24.099Z,7.37
2018-09-29T08:11:53.340Z,7.30
2018-09-29T08:14:22.616Z,7.10
2018-09-29T08:16:51.773Z,6.00
2018-09-29T08:19:20.881Z,6.10
2018-09-29T08:21:50.006Z,8.80
2018-09-29T08:24:19.213Z,6.43
2018-09-29T08:26:48.254Z,6.70
2018-09-29T08:29:17.507Z,15.20
2018-09-29T08:31:46.559Z,6.97
2018-09-29T08:34:17.113Z,6.07
2018-09-29T08:36:46.221Z,5.47
2018-09-29T08:39:15.519Z,6.57
2018-09-29T08:41:44.908Z,5.27
2018-09-29T08:44:14.064Z,9.40
2018-09-29T08:46:43.241Z,5.00
2018-09-29T08:49:12.525Z,4.93
2018-09-29T08:51:42.050Z,5.70
2018-09-29T08:54:11.191Z,4.30
2018-09-29T08:56:40.390Z,5.23
2018-09-29T08:59:09.494Z,4.47
2018-09-29T09:01:38.555Z,4.30
2018-09-29T09:04:08.726Z,5.63
2018-09-29T09:06:39.029Z,4.73
2018-09-29T09:09:09.554Z,5.77
2018-09-29T09:11:38.688Z,9.43
2018-09-29T09:14:08.284Z,7.43
2018-09-29T09:16:37.557Z,6.90
2018-09-29T09:19:06.760Z,46.03
2018-09-29T09:21:35.878Z,5.03
2018-09-29T09:24:05.067Z,7.60
2018-09-29T09:26:34.274Z,9.30
2018-09-29T09:29:03.425Z,3.60
2018-09-29T09:31:34.157Z,20.53
2018-09-29T09:34:04.008Z,4.03
2018-09-29T09:36:34.348Z,9.07
2018-09-29T09:39:04.715Z,3.77
2018-09-29T09:41:35.256Z,5.87
2018-09-29T09:44:04.504Z,4.50
2018-09-29T09:46:33.639Z,21.23
2018-09-29T09:49:03.793Z,11.00
2018-09-29T09:51:33.029Z,3.60
2018-09-29T09:54:02.184Z,12.43
2018-09-29T09:56:31.932Z,11.30
2018-09-29T09:59:01.096Z,18.17
2018-09-29T10:01:36.852Z,8.60
2018-09-29T10:04:06.131Z,14.03
2018-09-29T10:06:35.256Z,8.93
2018-09-29T10:09:06.413Z,11.57
2018-09-29T10:11:36.237Z,3.30
2018-09-29T10:14:06.188Z,5.40
2018-09-29T10:16:35.855Z,27.60
2018-09-29T10:19:05.921Z,3.70
2018-09-29T10:21:35.167Z,10.97
2018-09-29T10:24:04.398Z,8.03
2018-09-29T10:26:33.466Z,3.67
2018-09-29T10:29:02.722Z,3.27
2018-09-29T10:31:31.812Z,3.70
2018-09-29T10:34:00.949Z,2.33
2018-09-29T10:36:30.051Z,2.70
2018-09-29T10:38:59.147Z,2.37
2018-09-29T10:41:29.235Z,3.73
2018-09-29T10:43:58.949Z,2.10
2018-09-29T10:46:32.447Z,2.07
2018-09-29T10:49:02.914Z,2.13
2018-09-29T10:51:32.025Z,2.87
2018-09-29T10:54:01.368Z,2.67
2018-09-29T10:56:30.566Z,2.27
2018-09-29T10:59:00.173Z,3.33
2018-09-29T11:01:29.369Z,2.63
2018-09-29T11:03:58.588Z,2.93
2018-09-29T11:06:27.777Z,6.27
2018-09-29T11:08:57.585Z,3.03
2018-09-29T11:11:26.949Z,2.83
2018-09-29T11:13:57.308Z,2.20
2018-09-29T11:16:27.310Z,2.50
2018-09-29T11:18:56.531Z,2.40
2018-09-29T11:21:25.987Z,2.37
2018-09-29T11:23:55.743Z,2.50
2018-09-29T11:26:24.966Z,2.67
2018-09-29T11:28:54.103Z,9.37
2018-09-29T11:31:23.247Z,3.00
2018-09-29T11:33:52.495Z,3.90
2018-09-29T11:36:21.589Z,3.10
2018-09-29T11:38:50.703Z,2.67
2018-09-29T11:41:20.422Z,2.37
2018-09-29T11:43:49.623Z,2.97
2018-09-29T11:46:18.756Z,2.73
2018-09-29T11:48:47.887Z,3.10
2018-09-29T11:51:18.268Z,10.60
2018-09-29T11:53:47.543Z,3.87
2018-09-29T11:56:16.893Z,3.07
2018-09-29T11:58:46.046Z,2.60
2018-09-29T12:01:15.371Z,2.50
2018-09-29T12:03:44.479Z,2.50
2018-09-29T12:06:17.388Z,2.70
2018-09-29T12:08:46.467Z,2.70
2018-09-29T12:11:15.687Z,2.57
2018-09-29T12:13:45.448Z,2.20
2018-09-29T12:16:15.540Z,2.50
2018-09-29T12:18:44.691Z,2.23
2018-09-29T12:21:13.836Z,2.20
2018-09-29T12:23:43.439Z,2.30
2018-09-29T12:26:13.148Z,2.70
2018-09-29T12:28:42.389Z,2.20
2018-09-29T12:31:11.712Z,2.33
2018-09-29T12:33:41.582Z,2.37
2018-09-29T12:36:11.304Z,2.40
2018-09-29T12:38:40.975Z,2.20
2018-09-29T12:41:10.201Z,2.70
2018-09-29T12:43:39.320Z,2.40
2018-09-29T12:46:08.570Z,2.57
2018-09-29T12:48:38.116Z,3.27
2018-09-29T12:51:07.415Z,2.20
2018-09-29T12:53:37.260Z,2.30
2018-09-29T12:56:06.788Z,2.53
2018-09-29T12:58:36.739Z,2.73
2018-09-29T13:01:05.851Z,2.33
2018-09-29T13:03:34.930Z,2.50
2018-09-29T13:06:04.017Z,2.60
2018-09-29T13:08:33.248Z,2.17
2018-09-29T13:11:02.357Z,2.20
2018-09-29T13:13:32.124Z,1.70
2018-09-29T13:16:01.285Z,2.70
2018-09-29T13:18:30.511Z,2.93
2018-09-29T13:20:59.780Z,2.20
2018-09-29T13:23:29.086Z,2.63
2018-09-29T13:25:58.321Z,3.17
2018-09-29T13:28:27.545Z,2.97
2018-09-29T13:30:57.611Z,2.17
2018-09-29T13:33:27.043Z,3.07
2018-09-29T13:35:56.245Z,2.70
2018-09-29T13:38:25.416Z,3.23
2018-09-29T13:40:55.020Z,3.90
2018-09-29T13:43:25.211Z,3.03
2018-09-29T13:45:54.418Z,3.50
2018-09-29T13:48:23.568Z,2.93
2018-09-29T13:50:53.286Z,3.30
2018-09-29T13:53:22.475Z,3.10
2018-09-29T13:55:52.024Z,3.43
2018-09-29T13:58:21.136Z,3.43
2018-09-29T14:00:50.354Z,3.17
2018-09-29T14:03:19.586Z,3.60
2018-09-29T14:05:48.738Z,3.00
2018-09-29T14:08:17.855Z,2.83
2018-09-29T14:10:46.991Z,3.20
2018-09-29T14:13:16.431Z,3.47
2018-09-29T14:15:45.869Z,3.37
2018-09-29T14:18:15.542Z,2.47
2018-09-29T14:20:45.278Z,4.27
2018-09-29T14:23:14.587Z,11.17
2018-09-29T14:25:43.722Z,4.10
2018-09-29T14:28:12.887Z,2.10
2018-09-29T14:30:42.008Z,2.97
2018-09-29T14:33:11.263Z,2.93
2018-09-29T14:35:40.378Z,2.17
2018-09-29T14:38:10.926Z,3.03
2018-09-29T14:40:40.011Z,2.40
2018-09-29T14:43:09.230Z,2.80
2018-09-29T14:45:39.076Z,2.10
2018-09-29T14:48:08.829Z,1.97
2018-09-29T14:50:38.512Z,2.47
2018-09-29T14:53:08.308Z,2.50
2018-09-29T14:55:37.527Z,2.20
2018-09-29T14:58:06.731Z,2.40
2018-09-29T15:00:35.883Z,2.43
2018-09-29T15:03:05.048Z,2.10
2018-09-29T15:05:34.186Z,1.87
2018-09-29T15:08:03.442Z,2.27
2018-09-29T15:10:33.552Z,2.00
2018-09-29T15:13:02.823Z,1.90
2018-09-29T15:15:33.575Z,2.10
2018-09-29T15:18:02.701Z,2.50
2018-09-29T15:20:31.904Z,2.77
2018-09-29T15:23:01.000Z,12.73
2018-09-29T15:25:30.082Z,4.67
2018-09-29T15:27:59.227Z,2.43
2018-09-29T15:30:28.325Z,2.73
2018-09-29T15:32:57.794Z,2.37
2018-09-29T15:35:32.598Z,2.27
2018-09-29T15:38:02.332Z,2.00
2018-09-29T15:40:31.569Z,2.97
2018-09-29T15:43:00.738Z,2.17
2018-09-29T15:45:29.901Z,3.40
2018-09-29T15:47:59.054Z,4.03
2018-09-29T15:50:28.185Z,2.20
2018-09-29T15:52:57.345Z,2.20
2018-09-29T15:55:26.479Z,2.30
2018-09-29T15:57:55.574Z,1.90
2018-09-29T16:00:26.025Z,2.17
2018-09-29T16:02:55.186Z,1.83
2018-09-29T16:05:25.034Z,1.93
2018-09-29T16:07:54.598Z,3.60
2018-09-29T16:10:23.914Z,4.00
2018-09-29T16:12:53.095Z,3.60
2018-09-29T16:15:22.292Z,2.70
2018-09-29T16:17:51.406Z,2.80
2018-09-29T16:20:20.639Z,2.13
2018-09-29T16:22:49.722Z,3.20
2018-09-29T16:25:18.846Z,3.40
2018-09-29T16:27:48.560Z,1.87
2018-09-29T16:30:17.787Z,2.23
2018-09-29T16:32:47.695Z,2.20
2018-09-29T16:35:16.801Z,2.10
2018-09-29T16:37:46.684Z,2.53
2018-09-29T16:40:16.353Z,2.70
2018-09-29T16:42:45.431Z,2.70
2018-09-29T16:45:14.567Z,11.83
2018-09-29T16:47:43.716Z,10.20
2018-09-29T16:50:12.910Z,6.40
2018-09-29T16:52:42.207Z,5.30
2018-09-29T16:55:12.276Z,3.90
2018-09-29T16:57:42.211Z,3.30
2018-09-29T17:00:12.095Z,2.87
2018-09-29T17:02:41.241Z,2.20
2018-09-29T17:05:10.857Z,2.60
2018-09-29T17:07:40.713Z,2.20
2018-09-29T17:10:09.812Z,3.10
2018-09-29T17:12:39.055Z,4.00
2018-09-29T17:15:08.267Z,4.60
2018-09-29T17:17:37.346Z,4.57
2018-09-29T17:20:06.617Z,4.93
2018-09-29T17:22:35.759Z,4.93
2018-09-29T17:25:05.024Z,4.33
2018-09-29T17:27:34.396Z,3.90
2018-09-29T17:30:04.501Z,3.53
2018-09-29T17:32:34.534Z,3.77
2018-09-29T17:35:03.729Z,4.27
2018-09-29T17:37:32.945Z,5.27
2018-09-29T17:40:02.221Z,7.20
2018-09-29T17:42:31.948Z,8.10
2018-09-29T17:45:01.350Z,6.67
2018-09-29T17:47:30.447Z,6.87
2018-09-29T17:50:00.206Z,5.63
2018-09-29T17:52:29.455Z,6.60
2018-09-29T17:54:58.562Z,5.77
2018-09-29T17:57:28.303Z,6.00
2018-09-29T17:59:57.499Z,5.10
2018-09-29T18:02:26.871Z,5.63
2018-09-29T18:04:56.071Z,4.77
2018-09-29T18:07:25.709Z,6.50
2018-09-29T18:09:55.920Z,6.43
2018-09-29T18:12:25.079Z,5.70
2018-09-29T18:14:54.183Z,7.27
2018-09-29T18:17:23.516Z,8.30
2018-09-29T18:19:52.654Z,8.37
2018-09-29T18:22:22.628Z,7.57
2018-09-29T18:24:52.434Z,7.90
2018-09-29T18:27:21.602Z,8.23
2018-09-29T18:29:50.786Z,8.83
2018-09-29T18:32:20.718Z,8.33
2018-09-29T18:34:49.979Z,8.40
2018-09-29T18:37:19.291Z,8.83
2018-09-29T18:39:48.707Z,8.97
2018-09-29T18:42:18.179Z,8.77
2018-09-29T18:44:48.064Z,8.37
2018-09-29T18:47:25.300Z,7.40
2018-09-29T18:49:55.451Z,7.27
2018-09-29T18:52:25.238Z,6.90
2018-09-29T18:54:54.412Z,7.30
2018-09-29T18:57:24.178Z,7.67
2018-09-29T19:02:19.927Z,8.43
2018-09-29T19:04:50.289Z,7.60
2018-09-29T19:07:19.600Z,8.63
2018-09-29T19:12:15.419Z,9.40
2018-09-29T19:14:44.635Z,9.00
2018-09-29T19:17:13.909Z,8.40
2018-09-29T19:19:43.707Z,8.50
2018-09-29T19:22:13.051Z,7.97
2018-09-29T19:24:43.416Z,7.27
2018-09-29T19:27:13.435Z,6.80
2018-09-29T19:29:42.739Z,7.40
2018-09-29T19:32:11.933Z,6.83
2018-09-29T19:34:41.057Z,7.23
2018-09-29T19:37:10.395Z,5.63
2018-09-29T19:39:39.570Z,7.97
2018-09-29T19:42:08.919Z,8.60
2018-09-29T19:44:38.179Z,7.37
2018-09-29T19:47:07.396Z,8.27
2018-09-29T19:49:36.525Z,7.60
2018-09-29T19:52:06.203Z,8.23
2018-09-29T19:54:36.025Z,7.40
2018-09-29T19:57:05.107Z,7.70
2018-09-29T19:59:34.257Z,6.80
2018-09-29T20:02:03.493Z,6.97
2018-09-29T20:04:33.579Z,6.50
2018-09-29T20:07:03.954Z,6.97
2018-09-29T20:09:33.206Z,6.40
2018-09-29T20:12:02.675Z,6.20
2018-09-29T20:14:32.727Z,5.63
2018-09-29T20:17:01.921Z,6.30
2018-09-29T20:19:31.295Z,9.73
2018-09-29T20:22:00.617Z,7.30
2018-09-29T20:24:30.807Z,5.70
2018-09-29T20:27:00.099Z,6.63
2018-09-29T20:29:29.422Z,20.57
2018-09-29T20:31:58.781Z,12.63
2018-09-29T20:34:28.700Z,13.80
2018-09-29T20:36:57.871Z,14.50
2018-09-29T20:39:27.572Z,18.47
2018-09-29T20:41:56.780Z,11.80
2018-09-29T20:44:25.955Z,10.20
2018-09-29T20:46:55.111Z,8.80
2018-09-29T20:49:24.468Z,9.80
2018-09-29T20:51:53.705Z,7.30
2018-09-29T20:54:22.907Z,7.30
2018-09-29T20:56:52.154Z,8.13
2018-09-29T20:59:22.068Z,8.10
2018-09-29T21:01:51.354Z,8.67
2018-09-29T21:04:21.309Z,8.47
2018-09-29T21:06:50.796Z,8.00
2018-09-29T21:09:19.995Z,8.00
2018-09-29T21:11:49.388Z,6.20
2018-09-29T21:14:18.632Z,7.20
2018-09-29T21:16:48.566Z,6.57
2018-09-29T21:19:17.663Z,6.60
2018-09-29T21:21:46.879Z,6.83
2018-09-29T21:24:16.739Z,8.10
2018-09-29T21:26:45.996Z,6.97
2018-09-29T21:29:15.098Z,6.70
2018-09-29T21:31:44.225Z,7.30
2018-09-29T21:34:13.460Z,7.40
2018-09-29T21:36:42.757Z,8.40
2018-09-29T21:39:12.876Z,7.53
2018-09-29T21:41:42.216Z,7.23
2018-09-29T21:44:11.530Z,7.33
2018-09-29T21:46:40.790Z,8.87
2018-09-29T21:49:09.990Z,8.13
2018-09-29T21:51:39.462Z,8.50
2018-09-29T21:54:09.528Z,14.10
2018-09-29T21:56:38.638Z,74.93
2018-09-29T21:59:07.858Z,62.63
2018-09-29T22:01:36.972Z,44.90
2018-09-29T22:04:06.159Z,31.67
2018-09-29T22:06:35.367Z,34.07
2018-09-29T22:09:06.194Z,27.60
2018-09-29T22:11:35.461Z,26.37
2018-09-29T22:14:04.664Z,26.80
2018-09-29T22:16:33.792Z,23.60
2018-09-29T22:19:03.126Z,23.57
2018-09-29T22:21:32.736Z,24.17
2018-09-29T22:24:01.867Z,20.20
2018-09-29T22:26:31.047Z,18.87
2018-09-29T22:29:00.188Z,14.87
2018-09-29T22:31:29.882Z,13.40
2018-09-29T22:33:59.673Z,15.70
2018-09-29T22:36:28.821Z,16.53
2018-09-29T22:38:58.113Z,15.97
2018-09-29T22:41:27.270Z,12.83
2018-09-29T22:43:56.464Z,11.07
2018-09-29T22:46:25.646Z,11.57
2018-09-29T22:48:54.938Z,14.10
2018-09-29T22:51:24.063Z,12.60
2018-09-29T22:53:53.171Z,12.10
2018-09-29T22:56:22.922Z,11.93
2018-09-29T22:58:52.010Z,10.17
2018-09-29T23:01:22.161Z,11.20
2018-09-29T23:03:51.938Z,14.73
2018-09-29T23:06:21.173Z,18.00
2018-09-29T23:08:50.401Z,12.30
2018-09-29T23:11:20.045Z,17.30
2018-09-29T23:13:49.296Z,15.47
2018-09-29T23:16:19.192Z,27.70
2018-09-29T23:18:48.346Z,29.00
2018-09-29T23:21:18.086Z,31.23
2018-09-29T23:23:47.458Z,28.87
2018-09-29T23:26:17.833Z,29.33
2018-09-29T23:28:47.070Z,27.27
2018-09-29T23:31:16.193Z,22.97
2018-09-29T23:33:45.322Z,21.67
2018-09-29T23:36:14.925Z,19.90
2018-09-29T23:38:44.940Z,18.13
2018-09-29T23:41:14.036Z,41.43
2018-09-29T23:43:44.046Z,47.77
2018-09-29T23:46:16.588Z,24.10
2018-09-29T23:48:45.736Z,21.30
2018-09-29T23:51:14.789Z,15.87
2018-09-29T23:53:43.896Z,14.60
2018-09-29T23:56:13.064Z,14.10
2018-09-29T23:58:42.488Z,13.70
